JST163 YBCG-NZHN
Flight info
| Callsign | JST163 |
|---|---|
| Flight time | N/A |
| Altitude | 37000 |
| Route | DUBUD A464 UPLAR Q537 POKOM |
| Aircraft | A320/M-SDE3FGHIRWY/LB1 |
Departure
| Time | N/A |
|---|---|
| Airport | Gold Coast Airport (YBCG) |
Arrival
| Time | 2026-04-14 04:44 |
|---|---|
| Airport | Hamilton International Airport (NZHN) |
| Time | Latitude | Longitude | Altitude | Speed | Heading |
|---|---|---|---|---|---|
| 2026-04-14 04:08 | -35.81288 | 171.40771 | 36801 ft | 492 kts | 140° |
| 2026-04-14 04:08 | -35.86043 | 171.46837 | 36803 ft | 493 kts | 140° |
| 2026-04-14 04:09 | -35.90805 | 171.52926 | 36802 ft | 493 kts | 140° |
| 2026-04-14 04:09 | -35.95561 | 171.59039 | 36799 ft | 494 kts | 140° |
| 2026-04-14 04:10 | -36.00322 | 171.65160 | 36803 ft | 494 kts | 140° |
| 2026-04-14 04:10 | -36.05084 | 171.71277 | 36802 ft | 494 kts | 139° |
| 2026-04-14 04:11 | -36.09843 | 171.77423 | 36802 ft | 495 kts | 139° |
| 2026-04-14 04:11 | -36.14596 | 171.83580 | 36791 ft | 495 kts | 139° |
| 2026-04-14 04:12 | -36.19356 | 171.89738 | 36795 ft | 495 kts | 139° |
| 2026-04-14 04:12 | -36.24119 | 171.95904 | 36790 ft | 495 kts | 139° |
| 2026-04-14 04:13 | -36.28866 | 172.02084 | 36791 ft | 496 kts | 139° |
| 2026-04-14 04:13 | -36.33622 | 172.08289 | 36786 ft | 496 kts | 139° |
| 2026-04-14 04:14 | -36.37573 | 172.13445 | 36788 ft | 496 kts | 139° |
| 2026-04-14 04:14 | -36.42325 | 172.19650 | 36778 ft | 496 kts | 139° |
| 2026-04-14 04:15 | -36.47076 | 172.25848 | 36780 ft | 496 kts | 138° |
| 2026-04-14 04:15 | -36.51823 | 172.32075 | 36777 ft | 496 kts | 138° |
| 2026-04-14 04:16 | -36.56564 | 172.38320 | 36778 ft | 496 kts | 138° |
| 2026-04-14 04:16 | -36.61305 | 172.44574 | 36770 ft | 497 kts | 138° |
| 2026-04-14 04:17 | -36.66052 | 172.50828 | 36771 ft | 497 kts | 138° |
| 2026-04-14 04:17 | -36.70799 | 172.57094 | 36768 ft | 497 kts | 137° |
| 2026-04-14 04:18 | -36.75546 | 172.63386 | 36774 ft | 498 kts | 137° |
| 2026-04-14 04:18 | -36.80282 | 172.69678 | 36766 ft | 498 kts | 137° |
| 2026-04-14 04:19 | -36.85021 | 172.75990 | 36771 ft | 498 kts | 137° |
| 2026-04-14 04:19 | -36.89766 | 172.82306 | 36761 ft | 499 kts | 137° |
| 2026-04-14 04:20 | -36.94486 | 172.88596 | 36766 ft | 499 kts | 137° |
| 2026-04-14 04:20 | -36.99226 | 172.94940 | 36762 ft | 499 kts | 137° |
| 2026-04-14 04:21 | -37.03963 | 173.01285 | 36766 ft | 499 kts | 137° |
| 2026-04-14 04:21 | -37.08708 | 173.07659 | 36757 ft | 500 kts | 136° |
| 2026-04-14 04:22 | -37.13440 | 173.14031 | 36756 ft | 500 kts | 136° |
| 2026-04-14 04:22 | -37.18185 | 173.20409 | 36754 ft | 500 kts | 136° |
| 2026-04-14 04:23 | -37.22931 | 173.26808 | 36753 ft | 500 kts | 136° |
| 2026-04-14 04:23 | -37.27660 | 173.33224 | 36746 ft | 501 kts | 136° |
| 2026-04-14 04:23 | -37.30024 | 173.36439 | 36612 ft | 501 kts | 136° |
| 2026-04-14 04:24 | -37.32389 | 173.39651 | 36358 ft | 500 kts | 136° |
| 2026-04-14 04:24 | -37.34750 | 173.42856 | 35992 ft | 499 kts | 136° |
| 2026-04-14 04:24 | -37.37122 | 173.46077 | 35240 ft | 504 kts | 136° |
| 2026-04-14 04:24 | -37.39518 | 173.49330 | 34398 ft | 511 kts | 135° |
| 2026-04-14 04:25 | -37.41943 | 173.52628 | 33719 ft | 513 kts | 135° |
| 2026-04-14 04:25 | -37.44361 | 173.55924 | 33097 ft | 511 kts | 135° |
| 2026-04-14 04:25 | -37.46772 | 173.59218 | 32456 ft | 510 kts | 135° |
| 2026-04-14 04:25 | -37.49169 | 173.62494 | 31842 ft | 508 kts | 135° |
| 2026-04-14 04:26 | -37.51553 | 173.65753 | 31200 ft | 506 kts | 134° |
| 2026-04-14 04:26 | -37.53937 | 173.69009 | 30576 ft | 505 kts | 134° |
| 2026-04-14 04:26 | -37.56311 | 173.72259 | 29936 ft | 503 kts | 134° |
| 2026-04-14 04:26 | -37.58672 | 173.75505 | 29242 ft | 501 kts | 134° |
| 2026-04-14 04:27 | -37.60984 | 173.78687 | 28634 ft | 496 kts | 134° |
| 2026-04-14 04:27 | -37.63306 | 173.81885 | 28028 ft | 492 kts | 134° |
| 2026-04-14 04:27 | -37.65610 | 173.85058 | 27386 ft | 488 kts | 134° |
| 2026-04-14 04:27 | -37.67896 | 173.88204 | 26780 ft | 484 kts | 134° |
| 2026-04-14 04:28 | -37.70171 | 173.91336 | 26171 ft | 481 kts | 134° |
| 2026-04-14 04:28 | -37.72418 | 173.94434 | 25581 ft | 478 kts | 134° |
| 2026-04-14 04:28 | -37.74654 | 173.97518 | 24988 ft | 474 kts | 134° |
| 2026-04-14 04:28 | -37.76871 | 174.00583 | 24434 ft | 470 kts | 134° |
| 2026-04-14 04:29 | -37.79070 | 174.03625 | 23881 ft | 467 kts | 133° |
| 2026-04-14 04:29 | -37.81247 | 174.06649 | 23355 ft | 463 kts | 133° |
| 2026-04-14 04:29 | -37.83407 | 174.09651 | 22767 ft | 459 kts | 133° |
| 2026-04-14 04:29 | -37.85543 | 174.12618 | 22266 ft | 453 kts | 133° |
| 2026-04-14 04:30 | -37.87426 | 174.15784 | 21760 ft | 448 kts | 119° |
| 2026-04-14 04:30 | -37.88687 | 174.19347 | 21257 ft | 442 kts | 105° |
| 2026-04-14 04:30 | -37.89283 | 174.23132 | 20724 ft | 435 kts | 91° |
| 2026-04-14 04:30 | -37.89278 | 174.26919 | 20220 ft | 428 kts | 83° |
| 2026-04-14 04:31 | -37.89145 | 174.30669 | 19692 ft | 425 kts | 83° |
| 2026-04-14 04:31 | -37.89008 | 174.34400 | 19166 ft | 423 kts | 83° |
| 2026-04-14 04:31 | -37.88731 | 174.41805 | 18074 ft | 420 kts | 83° |
| 2026-04-14 04:32 | -37.88595 | 174.45491 | 17468 ft | 418 kts | 83° |
| 2026-04-14 04:32 | -37.88458 | 174.49151 | 16931 ft | 414 kts | 83° |
| 2026-04-14 04:32 | -37.88318 | 174.52778 | 16379 ft | 411 kts | 83° |
| 2026-04-14 04:32 | -37.88178 | 174.56375 | 15842 ft | 407 kts | 83° |
| 2026-04-14 04:33 | -37.88038 | 174.59941 | 15304 ft | 404 kts | 83° |
| 2026-04-14 04:33 | -37.87898 | 174.63480 | 14763 ft | 401 kts | 83° |
| 2026-04-14 04:33 | -37.87760 | 174.66997 | 14235 ft | 399 kts | 84° |
| 2026-04-14 04:33 | -37.87623 | 174.70494 | 13703 ft | 397 kts | 84° |
| 2026-04-14 04:34 | -37.87490 | 174.73972 | 13142 ft | 395 kts | 85° |
| 2026-04-14 04:34 | -37.87674 | 174.77430 | 12611 ft | 394 kts | 98° |
| 2026-04-14 04:34 | -37.88441 | 174.80745 | 12090 ft | 392 kts | 112° |
| 2026-04-14 04:34 | -37.89760 | 174.83733 | 11695 ft | 384 kts | 127° |
| 2026-04-14 04:35 | -37.91475 | 174.86253 | 11381 ft | 375 kts | 135° |
| 2026-04-14 04:35 | -37.93272 | 174.88636 | 10889 ft | 373 kts | 135° |
| 2026-04-14 04:35 | -37.95062 | 174.91012 | 10424 ft | 372 kts | 135° |
| 2026-04-14 04:35 | -37.96808 | 174.93335 | 10254 ft | 353 kts | 135° |
| 2026-04-14 04:36 | -37.98424 | 174.95492 | 10093 ft | 333 kts | 135° |
| 2026-04-14 04:36 | -38.00004 | 174.97598 | 9717 ft | 327 kts | 136° |
| 2026-04-14 04:36 | -38.01560 | 174.99664 | 9525 ft | 323 kts | 135° |
| 2026-04-14 04:36 | -38.03113 | 175.01728 | 9135 ft | 323 kts | 135° |
| 2026-04-14 04:37 | -38.04669 | 175.03795 | 8759 ft | 324 kts | 135° |
| 2026-04-14 04:37 | -38.06213 | 175.05848 | 8508 ft | 320 kts | 135° |
| 2026-04-14 04:37 | -38.07747 | 175.07887 | 8173 ft | 319 kts | 135° |
| 2026-04-14 04:37 | -38.09271 | 175.09921 | 7873 ft | 317 kts | 135° |
| 2026-04-14 04:38 | -38.10787 | 175.11944 | 7549 ft | 316 kts | 135° |
| 2026-04-14 04:38 | -38.12083 | 175.14168 | 7125 ft | 313 kts | 114° |
| 2026-04-14 04:38 | -38.12556 | 175.16853 | 6319 ft | 315 kts | 84° |
| 2026-04-14 04:38 | -38.12056 | 175.19529 | 5303 ft | 314 kts | 58° |
| 2026-04-14 04:39 | -38.10693 | 175.21668 | 4230 ft | 312 kts | 32° |
| 2026-04-14 04:39 | -38.08861 | 175.22971 | 3846 ft | 291 kts | 22° |
| 2026-04-14 04:39 | -38.07139 | 175.24097 | 3797 ft | 265 kts | 22° |
| 2026-04-14 04:39 | -38.05598 | 175.25129 | 3728 ft | 236 kts | 22° |
| 2026-04-14 04:40 | -38.04228 | 175.26050 | 3573 ft | 210 kts | 21° |
| 2026-04-14 04:40 | -38.03011 | 175.26865 | 3356 ft | 187 kts | 20° |
| 2026-04-14 04:40 | -38.01924 | 175.27586 | 3097 ft | 171 kts | 20° |
| 2026-04-14 04:41 | -37.99912 | 175.28445 | 3021 ft | 146 kts | 7° |
| 2026-04-14 04:41 | -37.98941 | 175.28793 | 3015 ft | 143 kts | 7° |
| 2026-04-14 04:41 | -37.97955 | 175.29146 | 2724 ft | 155 kts | 8° |
| 2026-04-14 04:41 | -37.96875 | 175.29527 | 2307 ft | 167 kts | 8° |
| 2026-04-14 04:42 | -37.95768 | 175.29926 | 1954 ft | 158 kts | 9° |
| 2026-04-14 04:42 | -37.94783 | 175.30293 | 1700 ft | 139 kts | 8° |
| 2026-04-14 04:42 | -37.93854 | 175.30632 | 1511 ft | 140 kts | 9° |
| 2026-04-14 04:42 | -37.92920 | 175.30971 | 1316 ft | 139 kts | 10° |
| 2026-04-14 04:43 | -37.92010 | 175.31302 | 1128 ft | 133 kts | 10° |
| 2026-04-14 04:43 | -37.91134 | 175.31620 | 938 ft | 130 kts | 10° |
| 2026-04-14 04:43 | -37.90257 | 175.31935 | 759 ft | 131 kts | 11° |
| 2026-04-14 04:43 | -37.89368 | 175.32254 | 593 ft | 135 kts | 12° |
| 2026-04-14 04:44 | -37.88440 | 175.32589 | 427 ft | 141 kts | 13° |
| 2026-04-14 04:44 | -37.87510 | 175.32938 | 312 ft | 140 kts | 11° |
| 2026-04-14 04:44 | -37.86588 | 175.33261 | 176 ft | 122 kts | 14° |
| 2026-04-14 04:44 | -37.86055 | 175.33441 | 178 ft | 44 kts | 15° |
| 2026-04-14 04:45 | -37.85862 | 175.33511 | 177 ft | 17 kts | 5° |
| 2026-04-14 04:45 | -37.85794 | 175.33522 | 177 ft | 10 kts | 79° |
| 2026-04-14 04:45 | -37.85845 | 175.33538 | 177 ft | 10 kts | 203° |
| 2026-04-14 04:45 | -37.85914 | 175.33501 | 177 ft | 12 kts | 200° |
| 2026-04-14 04:46 | -37.85999 | 175.33467 | 177 ft | 14 kts | 197° |
| 2026-04-14 04:46 | -37.86097 | 175.33429 | 178 ft | 15 kts | 197° |
| 2026-04-14 04:46 | -37.86204 | 175.33389 | 179 ft | 17 kts | 195° |
| 2026-04-14 04:46 | -37.86327 | 175.33349 | 179 ft | 19 kts | 193° |
| 2026-04-14 04:47 | -37.86443 | 175.33311 | 178 ft | 16 kts | 195° |
| 2026-04-14 04:47 | -37.86533 | 175.33315 | 177 ft | 13 kts | 117° |
| 2026-04-14 04:47 | -37.86555 | 175.33427 | 176 ft | 1 kts | 106° |
| 2026-04-14 04:47 | -37.86557 | 175.33438 | 176 ft | 2 kts | 106° |
| 2026-04-14 04:48 | -37.86562 | 175.33468 | 176 ft | 4 kts | 90° |
| 2026-04-14 04:48 | -37.86564 | 175.33503 | 176 ft | 5 kts | 104° |
| 2026-04-14 04:48 | -37.86572 | 175.33537 | 176 ft | 0 kts | 105° |
| 2026-04-14 04:48 | -37.86573 | 175.33544 | 176 ft | 2 kts | 105° |
| 2026-04-14 04:49 | -37.86574 | 175.33547 | 176 ft | 0 kts | 105° |